createdAt,value
2022-10-17T00:00:58.909Z,85.26
2022-10-17T00:03:25.854Z,85.69
2022-10-17T00:05:52.802Z,85.54
2022-10-17T00:08:20.266Z,85.61
2022-10-17T00:11:00.973Z,85.19
2022-10-17T00:13:28.245Z,85.04
2022-10-17T00:15:55.349Z,85.69
2022-10-17T00:18:22.557Z,85.37
2022-10-17T00:20:49.637Z,85.41
2022-10-17T00:23:16.688Z,85.31
2022-10-17T00:25:43.859Z,85.33
2022-10-17T00:28:12.905Z,85.50
2022-10-17T00:30:40.181Z,85.50
2022-10-17T00:33:07.569Z,85.43
2022-10-17T00:35:34.480Z,85.05
2022-10-17T00:38:01.432Z,85.28
2022-10-17T00:40:28.511Z,85.13
2022-10-17T00:42:55.495Z,85.40
2022-10-17T00:45:29.365Z,85.55
2022-10-17T00:48:05.230Z,85.48
2022-10-17T00:50:33.741Z,85.09
2022-10-17T00:53:04.035Z,85.47
2022-10-17T00:55:36.749Z,85.44
2022-10-17T00:58:06.169Z,85.41
2022-10-17T01:00:33.521Z,85.47
2022-10-17T01:03:00.474Z,85.36
2022-10-17T01:05:28.036Z,85.54
2022-10-17T01:07:56.406Z,85.15
2022-10-17T01:10:39.587Z,85.37
2022-10-17T01:13:20.528Z,85.10
2022-10-17T01:16:11.932Z,84.88
2022-10-17T01:18:57.319Z,84.93
2022-10-17T01:21:33.091Z,85.07
2022-10-17T01:24:17.955Z,84.67
2022-10-17T01:27:14.407Z,84.90
2022-10-17T01:30:36.412Z,84.21
2022-10-17T01:33:30.752Z,84.46
2022-10-17T01:36:28.831Z,84.68
2022-10-17T01:39:15.021Z,85.41
2022-10-17T01:42:26.058Z,84.34
2022-10-17T01:45:20.800Z,84.30
2022-10-17T01:47:52.004Z,84.46
2022-10-17T01:50:41.559Z,84.73
2022-10-17T01:53:16.427Z,84.67
2022-10-17T01:55:46.397Z,85.20
2022-10-17T01:58:21.896Z,84.63
2022-10-17T02:00:50.195Z,84.55
2022-10-17T02:03:20.612Z,84.88
2022-10-17T02:05:48.084Z,84.91
2022-10-17T02:08:39.618Z,84.67
2022-10-17T02:11:20.101Z,84.69
2022-10-17T02:17:34.378Z,84.73
2022-10-17T02:20:13.198Z,85.04
2022-10-17T02:23:05.645Z,84.54
2022-10-17T02:25:45.319Z,84.73
2022-10-17T02:28:23.305Z,85.09
2022-10-17T02:31:06.091Z,85.21
2022-10-17T02:33:44.476Z,85.02
2022-10-17T02:36:19.546Z,84.98
2022-10-17T02:38:47.182Z,85.25
2022-10-17T02:41:18.888Z,85.24
2022-10-17T02:43:48.957Z,85.31
2022-10-17T02:46:21.727Z,85.41
2022-10-17T02:48:57.976Z,85.72
2022-10-17T02:51:45.229Z,85.59
2022-10-17T02:54:27.113Z,85.31
2022-10-17T02:57:08.905Z,85.45
2022-10-17T02:59:38.294Z,85.63
2022-10-17T03:02:06.494Z,85.60
2022-10-17T03:04:34.645Z,85.61
2022-10-17T03:07:01.582Z,85.79
2022-10-17T03:09:28.762Z,85.86
2022-10-17T03:11:55.857Z,85.79
2022-10-17T03:14:22.883Z,86.20
2022-10-17T03:16:49.829Z,85.68
2022-10-17T03:19:18.367Z,85.84
2022-10-17T03:21:45.390Z,85.73
2022-10-17T03:24:12.605Z,86.01
2022-10-17T03:26:39.553Z,85.97
2022-10-17T03:29:07.850Z,85.93
2022-10-17T03:31:36.612Z,85.70
2022-10-17T03:34:05.745Z,85.74
2022-10-17T03:36:32.715Z,85.67
2022-10-17T03:39:01.304Z,86.13
2022-10-17T03:41:29.217Z,85.93
2022-10-17T03:43:56.227Z,86.24
2022-10-17T03:46:24.052Z,85.74
2022-10-17T03:48:51.279Z,85.61
2022-10-17T03:51:18.284Z,85.73
2022-10-17T03:53:50.562Z,85.90
2022-10-17T03:56:21.933Z,85.82
2022-10-17T03:59:00.058Z,85.92
2022-10-17T04:01:28.702Z,85.74
2022-10-17T04:03:57.643Z,85.90
2022-10-17T04:06:27.488Z,86.03
2022-10-17T04:08:54.637Z,85.83
2022-10-17T04:11:26.377Z,86.01
2022-10-17T04:13:59.634Z,86.04
2022-10-17T04:16:27.878Z,85.86
2022-10-17T04:19:01.750Z,85.76
2022-10-17T04:21:34.068Z,85.45
2022-10-17T04:24:06.095Z,85.55
2022-10-17T04:26:59.330Z,85.87
2022-10-17T04:29:29.350Z,85.63
2022-10-17T04:32:22.522Z,85.23
2022-10-17T04:34:55.282Z,85.38
2022-10-17T04:37:23.487Z,85.53
2022-10-17T04:39:52.724Z,85.85
2022-10-17T04:42:20.374Z,85.49
2022-10-17T04:44:47.698Z,85.81
2022-10-17T04:47:17.203Z,85.61
2022-10-17T04:49:44.694Z,85.65
2022-10-17T04:52:13.390Z,85.67
2022-10-17T04:54:43.509Z,85.54
2022-10-17T04:57:13.643Z,85.66
2022-10-17T04:59:42.609Z,85.49
2022-10-17T05:02:18.814Z,85.23
2022-10-17T05:04:46.758Z,85.70
2022-10-17T05:07:15.129Z,85.33
2022-10-17T05:09:47.764Z,85.50
2022-10-17T05:12:16.090Z,85.51
2022-10-17T05:14:45.255Z,85.50
2022-10-17T05:17:12.586Z,85.57
2022-10-17T05:19:39.621Z,85.61
2022-10-17T05:22:08.463Z,85.57
2022-10-17T05:24:35.459Z,85.42
2022-10-17T05:27:02.676Z,85.56
2022-10-17T05:29:29.745Z,85.74
2022-10-17T05:32:05.934Z,85.41
2022-10-17T05:34:34.916Z,85.68
2022-10-17T05:37:02.029Z,85.49
2022-10-17T05:39:29.151Z,85.38
2022-10-17T05:41:57.446Z,85.55
2022-10-17T05:44:24.449Z,85.56
2022-10-17T05:46:55.553Z,85.16
2022-10-17T05:49:33.229Z,85.10
2022-10-17T05:52:10.302Z,85.23
2022-10-17T05:54:52.543Z,84.92
2022-10-17T05:57:20.203Z,85.01
2022-10-17T05:59:47.793Z,85.32
2022-10-17T06:02:19.142Z,85.19
2022-10-17T06:04:48.442Z,85.07
2022-10-17T06:07:16.586Z,85.04
2022-10-17T06:12:16.598Z,85.33
2022-10-17T06:14:44.418Z,85.14
2022-10-17T06:17:15.926Z,84.84
2022-10-17T06:19:44.836Z,85.01
2022-10-17T06:22:13.315Z,85.36
2022-10-17T06:24:42.248Z,85.31
2022-10-17T06:27:11.980Z,84.93
2022-10-17T06:29:40.146Z,85.04
2022-10-17T06:32:09.858Z,85.36
2022-10-17T06:34:40.163Z,84.97
2022-10-17T06:37:07.191Z,85.33
2022-10-17T06:39:36.076Z,85.15
2022-10-17T06:42:07.365Z,85.20
2022-10-17T06:44:57.466Z,85.12
2022-10-17T06:47:41.506Z,84.96
2022-10-17T06:50:31.241Z,84.97
2022-10-17T06:53:07.579Z,85.25
2022-10-17T06:56:10.166Z,85.27
2022-10-17T06:58:46.955Z,85.04
2022-10-17T07:01:24.097Z,84.98
2022-10-17T07:03:55.140Z,85.37
2022-10-17T07:06:24.622Z,85.06
2022-10-17T07:08:52.678Z,84.93
2022-10-17T07:11:21.639Z,85.07
2022-10-17T07:13:51.157Z,85.35
2022-10-17T07:16:18.262Z,85.09
2022-10-17T07:18:51.136Z,84.83
2022-10-17T07:21:18.914Z,84.57
2022-10-17T07:23:46.226Z,84.88
2022-10-17T07:26:17.008Z,83.88
2022-10-17T07:28:46.776Z,84.58
2022-10-17T07:31:27.490Z,84.65
2022-10-17T07:33:54.426Z,84.51
2022-10-17T07:36:21.411Z,84.71
2022-10-17T07:38:48.634Z,84.74
2022-10-17T07:41:19.280Z,84.71
2022-10-17T07:43:49.556Z,84.89
2022-10-17T07:46:19.931Z,84.34
2022-10-17T07:48:46.978Z,84.89
2022-10-17T07:51:14.015Z,84.71
2022-10-17T07:53:45.107Z,84.61
2022-10-17T07:56:15.010Z,84.59
2022-10-17T07:58:42.429Z,84.44
2022-10-17T08:01:15.397Z,84.44
2022-10-17T08:03:45.224Z,84.54
2022-10-17T08:06:12.811Z,84.46
2022-10-17T08:08:39.975Z,84.36
2022-10-17T08:11:11.803Z,84.98
2022-10-17T08:13:40.256Z,85.15
2022-10-17T08:16:11.369Z,85.13
2022-10-17T08:18:40.966Z,84.12
2022-10-17T08:21:08.569Z,83.70
2022-10-17T08:23:36.839Z,84.46
2022-10-17T08:26:10.236Z,84.40
2022-10-17T08:28:39.058Z,83.69
2022-10-17T08:31:09.915Z,82.58
2022-10-17T08:33:37.617Z,82.36
2022-10-17T08:36:06.572Z,81.48
2022-10-17T08:38:35.943Z,82.28
2022-10-17T08:41:14.653Z,82.32
2022-10-17T08:44:17.313Z,81.25
2022-10-17T08:46:51.698Z,82.10
2022-10-17T08:49:53.970Z,81.58
2022-10-17T08:52:44.351Z,81.03
2022-10-17T08:55:45.598Z,80.97
2022-10-17T08:58:25.978Z,81.14
2022-10-17T09:01:31.871Z,80.72
2022-10-17T09:04:07.613Z,82.58
2022-10-17T09:07:02.869Z,81.41
2022-10-17T09:10:04.893Z,82.60
2022-10-17T09:13:07.627Z,81.53
2022-10-17T09:16:11.249Z,79.84
2022-10-17T09:18:42.901Z,81.35
2022-10-17T09:21:37.722Z,80.43
2022-10-17T09:24:17.794Z,81.38
2022-10-17T09:26:46.829Z,81.73
2022-10-17T09:29:29.608Z,81.47
2022-10-17T09:32:26.036Z,80.61
2022-10-17T09:34:53.954Z,81.02
2022-10-17T09:37:30.218Z,81.21
2022-10-17T09:39:57.615Z,82.06
2022-10-17T09:42:27.739Z,81.16
2022-10-17T09:45:16.699Z,82.94
2022-10-17T09:48:22.870Z,81.74
2022-10-17T09:50:57.900Z,82.53
2022-10-17T09:53:41.010Z,81.08
2022-10-17T09:56:15.904Z,82.12
2022-10-17T09:58:55.139Z,82.19
2022-10-17T10:01:26.128Z,81.38
2022-10-17T10:04:13.959Z,82.87
2022-10-17T10:07:01.162Z,83.44
2022-10-17T10:09:33.345Z,82.85
2022-10-17T10:12:16.489Z,81.78
2022-10-17T10:14:46.285Z,81.99
2022-10-17T10:17:43.351Z,83.51
2022-10-17T10:21:12.418Z,81.79
2022-10-17T10:23:43.091Z,83.39
2022-10-17T10:26:27.378Z,83.40
2022-10-17T10:29:05.688Z,84.12
2022-10-17T10:31:39.430Z,83.07
2022-10-17T10:34:28.780Z,83.12
2022-10-17T10:37:07.178Z,84.45
2022-10-17T10:39:41.040Z,84.33
2022-10-17T10:42:21.916Z,83.48
2022-10-17T10:44:50.562Z,83.67
2022-10-17T10:47:30.941Z,84.75
2022-10-17T10:50:31.619Z,82.19
2022-10-17T10:53:36.833Z,82.37
2022-10-17T10:56:28.341Z,83.60
2022-10-17T10:59:25.963Z,81.35
2022-10-17T11:02:07.859Z,83.19
2022-10-17T11:04:49.647Z,84.00
2022-10-17T11:07:28.652Z,83.43
2022-10-17T11:10:41.173Z,84.92
2022-10-17T11:13:30.628Z,82.81
2022-10-17T11:17:04.507Z,80.12
2022-10-17T11:19:46.140Z,80.84
2022-10-17T11:22:28.189Z,83.70
2022-10-17T11:25:37.989Z,82.13
2022-10-17T11:28:15.077Z,84.55
2022-10-17T11:30:59.084Z,84.17
2022-10-17T11:33:44.096Z,83.25
2022-10-17T11:36:13.331Z,85.51
2022-10-17T11:38:50.130Z,84.93
2022-10-17T11:41:42.933Z,81.34
2022-10-17T11:44:39.458Z,83.37
2022-10-17T11:47:34.416Z,84.62
2022-10-17T11:53:39.032Z,84.04
2022-10-17T11:56:06.591Z,83.02
2022-10-17T11:58:50.234Z,84.98
2022-10-17T12:01:51.092Z,86.41
2022-10-17T12:04:49.653Z,86.05
2022-10-17T12:08:00.889Z,78.89
2022-10-17T12:10:45.491Z,81.04
2022-10-17T12:13:31.227Z,80.16
2022-10-17T12:16:19.147Z,80.37
2022-10-17T12:18:49.216Z,80.22
2022-10-17T12:21:16.359Z,80.56
2022-10-17T12:23:53.333Z,81.34
2022-10-17T12:26:29.037Z,78.85
2022-10-17T12:28:57.172Z,80.82
2022-10-17T12:31:33.439Z,81.87
2022-10-17T12:34:03.765Z,83.00
2022-10-17T12:36:30.671Z,81.41
2022-10-17T12:39:03.880Z,81.85
2022-10-17T12:41:40.144Z,75.32
2022-10-17T12:44:12.953Z,77.96
2022-10-17T12:47:05.512Z,76.67
2022-10-17T12:49:42.837Z,76.17
2022-10-17T12:52:20.408Z,80.70
2022-10-17T12:55:12.053Z,81.32
2022-10-17T12:58:03.100Z,79.99
2022-10-17T13:01:11.834Z,79.18
2022-10-17T13:03:46.573Z,76.97
2022-10-17T13:06:30.913Z,78.19
2022-10-17T13:09:05.892Z,74.52
2022-10-17T13:11:36.140Z,79.48
2022-10-17T13:14:09.210Z,73.26
2022-10-17T13:16:51.515Z,74.25
2022-10-17T13:19:26.087Z,79.58
2022-10-17T13:22:00.956Z,78.05
2022-10-17T13:24:37.791Z,77.19
2022-10-17T13:27:20.926Z,76.62
2022-10-17T13:29:47.868Z,77.77
2022-10-17T13:32:14.761Z,75.94
2022-10-17T13:34:41.919Z,77.24
2022-10-17T13:37:14.617Z,76.24
2022-10-17T13:39:54.751Z,75.71
2022-10-17T13:42:37.787Z,77.04
2022-10-17T13:45:20.796Z,77.71
2022-10-17T13:47:48.055Z,77.15
2022-10-17T13:50:45.269Z,74.00
2022-10-17T13:53:25.455Z,77.87
2022-10-17T13:56:28.230Z,75.42
2022-10-17T13:59:01.316Z,77.51
2022-10-17T14:01:29.881Z,77.44
2022-10-17T14:04:08.449Z,76.37
2022-10-17T14:06:47.637Z,77.13
2022-10-17T14:09:30.586Z,77.31
2022-10-17T14:12:12.630Z,75.99
2022-10-17T14:15:08.784Z,78.48
2022-10-17T14:17:34.493Z,77.75
2022-10-17T14:20:34.373Z,77.69
2022-10-17T14:23:17.593Z,77.77
2022-10-17T14:25:40.567Z,77.93
2022-10-17T14:28:09.509Z,77.46
2022-10-17T14:30:57.660Z,78.77
2022-10-17T14:33:31.503Z,77.64
2022-10-17T14:36:03.107Z,76.92
2022-10-17T14:38:30.494Z,78.83
2022-10-17T14:44:35.841Z,76.72
2022-10-17T14:47:38.115Z,77.89
2022-10-17T14:50:21.455Z,77.51
2022-10-17T14:53:22.247Z,74.90
2022-10-17T14:55:58.679Z,75.68
2022-10-17T14:58:29.028Z,78.26
2022-10-17T15:00:57.446Z,76.81
2022-10-17T15:03:25.439Z,76.54
2022-10-17T15:05:55.092Z,78.40
2022-10-17T15:08:23.857Z,77.94
2022-10-17T15:10:51.867Z,74.17
2022-10-17T15:13:27.980Z,76.35
2022-10-17T15:15:55.952Z,76.71
2022-10-17T15:18:22.875Z,76.15
2022-10-17T15:20:55.454Z,76.37
2022-10-17T15:23:31.888Z,77.42
2022-10-17T15:25:58.825Z,77.89
2022-10-17T15:28:27.244Z,76.80
2022-10-17T15:30:54.265Z,76.71
2022-10-17T15:33:21.205Z,78.06
2022-10-17T15:35:48.571Z,77.63
2022-10-17T15:38:18.175Z,77.59
2022-10-17T15:40:48.789Z,78.08
2022-10-17T15:43:19.676Z,78.08
2022-10-17T15:45:47.688Z,78.03
2022-10-17T15:48:27.459Z,78.78
2022-10-17T15:50:54.449Z,78.60
2022-10-17T15:53:22.176Z,78.05
2022-10-17T15:55:50.894Z,78.22
2022-10-17T15:58:19.139Z,78.53
2022-10-17T16:00:46.639Z,78.97
2022-10-17T16:03:14.273Z,78.25
2022-10-17T16:05:41.349Z,78.70
2022-10-17T16:08:08.258Z,78.88
2022-10-17T16:10:39.258Z,78.60
2022-10-17T16:13:06.173Z,78.37
2022-10-17T16:15:33.903Z,78.57
2022-10-17T16:18:02.981Z,78.54
2022-10-17T16:20:33.520Z,78.12
2022-10-17T16:23:02.908Z,77.85
2022-10-17T16:25:31.820Z,77.88
2022-10-17T16:28:00.453Z,77.51
2022-10-17T16:30:30.561Z,77.44
2022-10-17T16:32:57.638Z,77.02
2022-10-17T16:35:31.920Z,77.37
2022-10-17T16:38:01.981Z,77.25
2022-10-17T16:40:28.900Z,76.82
2022-10-17T16:42:55.854Z,77.11
2022-10-17T16:45:23.415Z,77.39
2022-10-17T16:47:50.660Z,77.57
2022-10-17T16:50:18.451Z,77.55
2022-10-17T16:52:45.495Z,77.61
2022-10-17T16:55:12.619Z,77.90
2022-10-17T16:57:39.653Z,78.09
2022-10-17T17:00:08.152Z,77.71
2022-10-17T17:02:35.273Z,77.99
2022-10-17T17:05:02.314Z,78.11
2022-10-17T17:07:29.874Z,78.22
2022-10-17T17:09:57.230Z,77.97
2022-10-17T17:12:24.276Z,77.95
2022-10-17T17:14:51.305Z,78.14
2022-10-17T17:17:30.337Z,77.99
2022-10-17T17:20:05.017Z,77.72
2022-10-17T17:22:32.045Z,77.56
2022-10-17T17:24:58.985Z,77.66
2022-10-17T17:27:29.050Z,77.99
2022-10-17T17:29:56.413Z,77.93
2022-10-17T17:32:23.366Z,77.89
2022-10-17T17:34:50.302Z,77.51
2022-10-17T17:37:17.275Z,77.84
2022-10-17T17:39:44.230Z,77.97
2022-10-17T17:42:11.171Z,77.65
2022-10-17T17:44:38.087Z,77.55
2022-10-17T17:47:05.224Z,77.78
2022-10-17T17:49:32.361Z,78.03
2022-10-17T17:51:59.406Z,77.68
2022-10-17T17:54:26.504Z,78.18
2022-10-17T17:56:53.498Z,77.34
2022-10-17T17:59:20.434Z,77.85
2022-10-17T18:01:47.489Z,77.84
2022-10-17T18:04:16.368Z,77.88
2022-10-17T18:06:43.424Z,77.92
2022-10-17T18:09:10.725Z,77.71
2022-10-17T18:11:38.289Z,77.98
2022-10-17T18:14:08.509Z,77.95
2022-10-17T18:16:37.501Z,77.99
2022-10-17T18:19:07.416Z,78.04
2022-10-17T18:21:36.093Z,77.93
2022-10-17T18:24:04.749Z,77.96
2022-10-17T18:26:32.181Z,78.09
2022-10-17T18:28:59.186Z,77.82
2022-10-17T18:31:32.006Z,77.77
2022-10-17T18:34:02.736Z,77.82
2022-10-17T18:36:32.494Z,77.19
2022-10-17T18:39:01.071Z,77.41
2022-10-17T18:41:28.397Z,77.46
2022-10-17T18:43:56.605Z,77.41
2022-10-17T18:46:30.762Z,77.36
2022-10-17T18:48:58.263Z,77.76
2022-10-17T18:51:26.821Z,77.86
2022-10-17T18:53:58.458Z,77.76
2022-10-17T18:56:26.286Z,77.70
2022-10-17T18:58:54.055Z,77.76
2022-10-17T19:01:24.835Z,77.66
2022-10-17T19:03:55.495Z,77.99
2022-10-17T19:06:26.996Z,77.85
2022-10-17T19:08:54.457Z,77.68
2022-10-17T19:11:25.418Z,77.73
2022-10-17T19:13:52.951Z,77.52
2022-10-17T19:16:25.725Z,77.63
2022-10-17T19:18:59.755Z,77.98
2022-10-17T19:21:27.035Z,77.80
2022-10-17T19:23:58.230Z,77.73
2022-10-17T19:26:28.492Z,77.95
2022-10-17T19:28:56.226Z,77.70
2022-10-17T19:31:27.272Z,77.75
2022-10-17T19:33:56.454Z,77.67
2022-10-17T19:36:30.477Z,77.89
2022-10-17T19:39:03.794Z,77.73
2022-10-17T19:41:31.543Z,77.85
2022-10-17T19:44:00.105Z,77.78
2022-10-17T19:46:29.285Z,77.70
2022-10-17T19:48:57.198Z,77.90
2022-10-17T19:51:26.427Z,78.13
2022-10-17T19:53:56.261Z,77.97
2022-10-17T19:56:25.163Z,77.96
2022-10-17T19:58:53.975Z,78.12
2022-10-17T20:01:27.966Z,77.76
2022-10-17T20:03:55.709Z,78.07
2022-10-17T20:06:23.952Z,77.94
2022-10-17T20:08:51.055Z,78.08
2022-10-17T20:11:21.761Z,78.13
2022-10-17T20:13:49.337Z,78.16
2022-10-17T20:16:21.266Z,78.17
2022-10-17T20:18:50.121Z,78.15
2022-10-17T20:21:21.209Z,77.97
2022-10-17T20:23:48.235Z,78.16
2022-10-17T20:29:18.300Z,78.13
2022-10-17T20:31:46.739Z,78.21
2022-10-17T20:34:16.184Z,78.41
2022-10-17T20:36:46.666Z,78.08
2022-10-17T20:39:15.494Z,78.24
2022-10-17T20:41:43.608Z,78.21
2022-10-17T20:44:11.712Z,78.50
2022-10-17T20:46:45.321Z,78.48
2022-10-17T20:49:19.596Z,78.29
2022-10-17T20:51:46.834Z,78.39
2022-10-17T20:54:13.936Z,78.68
2022-10-17T20:56:40.940Z,78.33
2022-10-17T20:59:12.831Z,78.61
2022-10-17T21:01:40.211Z,78.51
2022-10-17T21:04:33.202Z,78.64
2022-10-17T21:06:54.299Z,78.59
2022-10-17T21:09:22.280Z,78.61
2022-10-17T21:11:52.443Z,78.61
2022-10-17T21:14:19.505Z,78.51
2022-10-17T21:16:46.951Z,78.79
2022-10-17T21:19:15.080Z,78.38
2022-10-17T21:21:45.321Z,78.69
2022-10-17T21:24:16.979Z,78.72
2022-10-17T21:26:46.255Z,78.67
2022-10-17T21:29:14.211Z,78.67
2022-10-17T21:31:43.927Z,78.93
2022-10-17T21:34:19.962Z,78.63
2022-10-17T21:36:48.054Z,78.80
2022-10-17T21:39:15.713Z,79.02
2022-10-17T21:41:43.999Z,78.76
2022-10-17T21:44:15.878Z,79.00
2022-10-17T21:46:44.977Z,78.71
2022-10-17T21:49:14.577Z,78.86
2022-10-17T21:51:41.843Z,78.82
2022-10-17T21:54:09.152Z,79.26
2022-10-17T21:56:36.829Z,79.09
2022-10-17T21:59:04.812Z,79.38
2022-10-17T22:01:37.285Z,79.46
2022-10-17T22:04:08.181Z,79.31
2022-10-17T22:06:40.891Z,79.37
2022-10-17T22:09:22.223Z,79.61
2022-10-17T22:11:53.320Z,79.09
2022-10-17T22:14:22.379Z,79.41
2022-10-17T22:16:50.160Z,79.44
2022-10-17T22:19:23.754Z,79.83
2022-10-17T22:21:51.504Z,80.04
2022-10-17T22:26:48.773Z,79.73
2022-10-17T22:29:16.457Z,80.01
2022-10-17T22:31:44.084Z,79.60
2022-10-17T22:34:14.238Z,79.71
2022-10-17T22:36:42.018Z,79.89
2022-10-17T22:39:09.715Z,80.27
2022-10-17T22:41:36.993Z,80.02
2022-10-17T22:44:04.517Z,80.37
2022-10-17T22:46:31.456Z,79.97
2022-10-17T22:48:58.411Z,80.01
2022-10-17T22:51:25.383Z,80.25
2022-10-17T22:53:52.383Z,80.44
2022-10-17T22:56:20.926Z,80.33
2022-10-17T22:58:48.320Z,80.46
2022-10-17T23:01:19.914Z,80.09
2022-10-17T23:03:47.040Z,80.23
2022-10-17T23:06:14.906Z,80.41
2022-10-17T23:08:42.507Z,80.45
2022-10-17T23:11:10.430Z,80.59
2022-10-17T23:13:37.707Z,80.45
2022-10-17T23:16:05.126Z,80.86
2022-10-17T23:18:32.210Z,80.18
2022-10-17T23:20:59.260Z,80.42
2022-10-17T23:23:26.220Z,80.66
2022-10-17T23:25:53.133Z,80.59
2022-10-17T23:28:20.188Z,80.69
2022-10-17T23:30:47.160Z,80.29
2022-10-17T23:33:14.520Z,80.31
2022-10-17T23:35:41.831Z,80.58
2022-10-17T23:38:09.045Z,80.09
2022-10-17T23:40:35.984Z,80.36
2022-10-17T23:43:04.304Z,80.41
2022-10-17T23:45:36.140Z,80.34
2022-10-17T23:48:05.440Z,80.45
2022-10-17T23:50:32.412Z,80.22
2022-10-17T23:52:59.390Z,80.41
2022-10-17T23:55:26.395Z,80.54
2022-10-17T23:57:53.343Z,80.35
